sensor_id;sensor_type;location;lat;lon;timestamp;P1;durP1;ratioP1;P2;durP2;ratioP2
9508;SDS011;4792;50.088;8.122;2023-03-04T00:00:31;64.83;;;24.23;;
9508;SDS011;4792;50.088;8.122;2023-03-04T00:03:00;62.37;;;25.53;;
9508;SDS011;4792;50.088;8.122;2023-03-04T00:05:28;66.80;;;24.93;;
9508;SDS011;4792;50.088;8.122;2023-03-04T00:07:56;65.13;;;24.63;;
9508;SDS011;4792;50.088;8.122;2023-03-04T00:10:24;71.70;;;24.77;;
9508;SDS011;4792;50.088;8.122;2023-03-04T00:12:52;66.63;;;25.60;;
9508;SDS011;4792;50.088;8.122;2023-03-04T00:15:19;57.50;;;23.47;;
9508;SDS011;4792;50.088;8.122;2023-03-04T00:17:47;58.27;;;23.47;;
9508;SDS011;4792;50.088;8.122;2023-03-04T00:20:16;64.80;;;22.90;;
9508;SDS011;4792;50.088;8.122;2023-03-04T00:22:44;62.27;;;23.37;;
9508;SDS011;4792;50.088;8.122;2023-03-04T00:25:13;62.73;;;22.67;;
9508;SDS011;4792;50.088;8.122;2023-03-04T00:27:41;53.37;;;21.50;;
9508;SDS011;4792;50.088;8.122;2023-03-04T00:30:09;60.10;;;22.40;;
9508;SDS011;4792;50.088;8.122;2023-03-04T00:32:37;54.03;;;21.10;;
9508;SDS011;4792;50.088;8.122;2023-03-04T00:35:06;50.63;;;20.83;;
9508;SDS011;4792;50.088;8.122;2023-03-04T00:37:35;52.40;;;20.67;;
9508;SDS011;4792;50.088;8.122;2023-03-04T00:40:04;50.60;;;21.17;;
9508;SDS011;4792;50.088;8.122;2023-03-04T00:42:32;46.33;;;20.00;;
9508;SDS011;4792;50.088;8.122;2023-03-04T00:45:00;42.17;;;18.47;;
9508;SDS011;4792;50.088;8.122;2023-03-04T00:47:28;48.17;;;20.43;;
9508;SDS011;4792;50.088;8.122;2023-03-04T00:49:56;50.27;;;20.10;;
9508;SDS011;4792;50.088;8.122;2023-03-04T00:52:24;50.63;;;21.57;;
9508;SDS011;4792;50.088;8.122;2023-03-04T00:54:53;50.13;;;21.07;;
9508;SDS011;4792;50.088;8.122;2023-03-04T00:57:21;50.57;;;21.23;;
9508;SDS011;4792;50.088;8.122;2023-03-04T00:59:49;50.37;;;21.33;;
9508;SDS011;4792;50.088;8.122;2023-03-04T01:02:17;52.57;;;21.23;;
9508;SDS011;4792;50.088;8.122;2023-03-04T01:04:45;51.10;;;19.17;;
9508;SDS011;4792;50.088;8.122;2023-03-04T01:07:13;52.17;;;21.00;;
9508;SDS011;4792;50.088;8.122;2023-03-04T01:09:41;50.03;;;20.87;;
9508;SDS011;4792;50.088;8.122;2023-03-04T01:12:10;46.53;;;20.20;;
9508;SDS011;4792;50.088;8.122;2023-03-04T01:14:38;51.40;;;21.23;;
9508;SDS011;4792;50.088;8.122;2023-03-04T01:17:06;44.77;;;20.27;;
9508;SDS011;4792;50.088;8.122;2023-03-04T01:19:34;48.97;;;21.37;;
9508;SDS011;4792;50.088;8.122;2023-03-04T01:22:02;49.13;;;21.43;;
9508;SDS011;4792;50.088;8.122;2023-03-04T01:24:30;49.13;;;22.00;;
9508;SDS011;4792;50.088;8.122;2023-03-04T01:26:58;54.67;;;20.80;;
9508;SDS011;4792;50.088;8.122;2023-03-04T01:29:27;50.27;;;23.03;;
9508;SDS011;4792;50.088;8.122;2023-03-04T01:31:55;50.87;;;22.03;;
9508;SDS011;4792;50.088;8.122;2023-03-04T01:34:23;45.57;;;20.63;;
9508;SDS011;4792;50.088;8.122;2023-03-04T01:36:51;46.97;;;20.80;;
9508;SDS011;4792;50.088;8.122;2023-03-04T01:39:20;48.37;;;22.27;;
9508;SDS011;4792;50.088;8.122;2023-03-04T01:41:50;47.07;;;22.30;;
9508;SDS011;4792;50.088;8.122;2023-03-04T01:44:18;50.93;;;21.87;;
9508;SDS011;4792;50.088;8.122;2023-03-04T01:46:48;42.57;;;20.27;;
9508;SDS011;4792;50.088;8.122;2023-03-04T01:49:19;47.37;;;20.47;;
9508;SDS011;4792;50.088;8.122;2023-03-04T01:51:47;47.10;;;21.60;;
9508;SDS011;4792;50.088;8.122;2023-03-04T01:54:17;43.07;;;20.97;;
9508;SDS011;4792;50.088;8.122;2023-03-04T01:56:46;42.43;;;20.93;;
9508;SDS011;4792;50.088;8.122;2023-03-04T01:59:15;50.23;;;22.60;;
9508;SDS011;4792;50.088;8.122;2023-03-04T02:01:45;41.40;;;19.70;;
9508;SDS011;4792;50.088;8.122;2023-03-04T02:04:16;44.90;;;21.00;;
9508;SDS011;4792;50.088;8.122;2023-03-04T02:06:44;43.57;;;21.07;;
9508;SDS011;4792;50.088;8.122;2023-03-04T02:09:13;46.77;;;22.03;;
9508;SDS011;4792;50.088;8.122;2023-03-04T02:11:42;44.07;;;19.90;;
9508;SDS011;4792;50.088;8.122;2023-03-04T02:14:11;46.30;;;19.90;;
9508;SDS011;4792;50.088;8.122;2023-03-04T02:16:39;38.47;;;19.80;;
9508;SDS011;4792;50.088;8.122;2023-03-04T02:19:09;44.57;;;21.00;;
9508;SDS011;4792;50.088;8.122;2023-03-04T02:21:42;42.80;;;22.30;;
9508;SDS011;4792;50.088;8.122;2023-03-04T02:24:11;44.60;;;21.37;;
9508;SDS011;4792;50.088;8.122;2023-03-04T02:26:43;44.60;;;21.73;;
9508;SDS011;4792;50.088;8.122;2023-03-04T02:29:12;42.63;;;20.00;;
9508;SDS011;4792;50.088;8.122;2023-03-04T02:31:42;38.30;;;19.73;;
9508;SDS011;4792;50.088;8.122;2023-03-04T02:34:11;42.37;;;21.53;;
9508;SDS011;4792;50.088;8.122;2023-03-04T02:36:41;38.80;;;19.97;;
9508;SDS011;4792;50.088;8.122;2023-03-04T02:39:10;43.47;;;20.67;;
9508;SDS011;4792;50.088;8.122;2023-03-04T02:41:40;43.47;;;21.80;;
9508;SDS011;4792;50.088;8.122;2023-03-04T02:44:14;47.47;;;23.30;;
9508;SDS011;4792;50.088;8.122;2023-03-04T02:46:44;40.13;;;22.50;;
9508;SDS011;4792;50.088;8.122;2023-03-04T02:49:12;44.20;;;21.87;;
9508;SDS011;4792;50.088;8.122;2023-03-04T02:51:40;49.43;;;24.03;;
9508;SDS011;4792;50.088;8.122;2023-03-04T02:54:13;48.37;;;23.27;;
9508;SDS011;4792;50.088;8.122;2023-03-04T02:56:44;49.60;;;24.23;;
9508;SDS011;4792;50.088;8.122;2023-03-04T02:59:14;43.40;;;22.97;;
9508;SDS011;4792;50.088;8.122;2023-03-04T03:01:42;47.57;;;24.00;;
9508;SDS011;4792;50.088;8.122;2023-03-04T03:04:10;51.03;;;25.30;;
9508;SDS011;4792;50.088;8.122;2023-03-04T03:06:38;49.73;;;25.23;;
9508;SDS011;4792;50.088;8.122;2023-03-04T03:09:07;51.30;;;26.73;;
9508;SDS011;4792;50.088;8.122;2023-03-04T03:11:35;49.77;;;26.53;;
9508;SDS011;4792;50.088;8.122;2023-03-04T03:14:03;51.03;;;26.70;;
9508;SDS011;4792;50.088;8.122;2023-03-04T03:16:32;50.80;;;26.80;;
9508;SDS011;4792;50.088;8.122;2023-03-04T03:19:00;50.23;;;27.23;;
9508;SDS011;4792;50.088;8.122;2023-03-04T03:21:28;57.57;;;29.27;;
9508;SDS011;4792;50.088;8.122;2023-03-04T03:23:56;52.33;;;28.23;;
9508;SDS011;4792;50.088;8.122;2023-03-04T03:26:24;53.73;;;29.20;;
9508;SDS011;4792;50.088;8.122;2023-03-04T03:28:58;54.63;;;28.57;;
9508;SDS011;4792;50.088;8.122;2023-03-04T03:31:27;53.07;;;28.77;;
9508;SDS011;4792;50.088;8.122;2023-03-04T03:33:56;62.57;;;31.80;;
9508;SDS011;4792;50.088;8.122;2023-03-04T03:36:24;58.33;;;30.90;;
9508;SDS011;4792;50.088;8.122;2023-03-04T03:38:53;54.70;;;28.77;;
9508;SDS011;4792;50.088;8.122;2023-03-04T03:41:20;55.83;;;29.50;;
9508;SDS011;4792;50.088;8.122;2023-03-04T03:43:48;53.80;;;29.17;;
9508;SDS011;4792;50.088;8.122;2023-03-04T03:46:16;56.53;;;30.97;;
9508;SDS011;4792;50.088;8.122;2023-03-04T03:48:44;56.60;;;29.73;;
9508;SDS011;4792;50.088;8.122;2023-03-04T03:51:13;53.97;;;27.97;;
9508;SDS011;4792;50.088;8.122;2023-03-04T03:53:41;54.07;;;28.57;;
9508;SDS011;4792;50.088;8.122;2023-03-04T03:56:09;48.97;;;26.77;;
9508;SDS011;4792;50.088;8.122;2023-03-04T03:58:37;50.20;;;26.37;;
9508;SDS011;4792;50.088;8.122;2023-03-04T04:01:05;52.97;;;27.37;;
9508;SDS011;4792;50.088;8.122;2023-03-04T04:03:34;55.97;;;28.20;;
9508;SDS011;4792;50.088;8.122;2023-03-04T04:06:02;48.70;;;26.80;;
9508;SDS011;4792;50.088;8.122;2023-03-04T04:08:32;52.20;;;27.93;;
9508;SDS011;4792;50.088;8.122;2023-03-04T04:11:00;50.97;;;26.77;;
9508;SDS011;4792;50.088;8.122;2023-03-04T04:13:28;53.30;;;28.83;;
9508;SDS011;4792;50.088;8.122;2023-03-04T04:15:56;51.57;;;27.17;;
9508;SDS011;4792;50.088;8.122;2023-03-04T04:18:24;52.67;;;27.20;;
9508;SDS011;4792;50.088;8.122;2023-03-04T04:20:53;47.00;;;26.30;;
9508;SDS011;4792;50.088;8.122;2023-03-04T04:23:21;48.83;;;26.27;;
9508;SDS011;4792;50.088;8.122;2023-03-04T04:25:50;49.37;;;25.93;;
9508;SDS011;4792;50.088;8.122;2023-03-04T04:28:18;48.93;;;26.73;;
9508;SDS011;4792;50.088;8.122;2023-03-04T04:30:46;43.30;;;25.13;;
9508;SDS011;4792;50.088;8.122;2023-03-04T04:33:14;49.00;;;26.13;;
9508;SDS011;4792;50.088;8.122;2023-03-04T04:35:42;48.27;;;24.80;;
9508;SDS011;4792;50.088;8.122;2023-03-04T04:38:10;47.40;;;24.63;;
9508;SDS011;4792;50.088;8.122;2023-03-04T04:40:38;40.40;;;21.87;;
9508;SDS011;4792;50.088;8.122;2023-03-04T04:43:07;48.93;;;23.70;;
9508;SDS011;4792;50.088;8.122;2023-03-04T04:45:35;44.60;;;23.47;;
9508;SDS011;4792;50.088;8.122;2023-03-04T04:48:03;44.13;;;22.87;;
9508;SDS011;4792;50.088;8.122;2023-03-04T04:50:31;44.07;;;22.67;;
9508;SDS011;4792;50.088;8.122;2023-03-04T04:52:59;41.87;;;23.73;;
9508;SDS011;4792;50.088;8.122;2023-03-04T04:55:27;42.73;;;22.73;;
9508;SDS011;4792;50.088;8.122;2023-03-04T04:57:55;42.70;;;21.73;;
9508;SDS011;4792;50.088;8.122;2023-03-04T05:00:25;41.40;;;22.50;;
9508;SDS011;4792;50.088;8.122;2023-03-04T05:02:53;40.97;;;22.73;;
9508;SDS011;4792;50.088;8.122;2023-03-04T05:05:20;46.33;;;24.53;;
9508;SDS011;4792;50.088;8.122;2023-03-04T05:07:48;45.17;;;23.87;;
9508;SDS011;4792;50.088;8.122;2023-03-04T05:10:16;44.17;;;22.53;;
9508;SDS011;4792;50.088;8.122;2023-03-04T05:12:44;43.20;;;22.30;;
9508;SDS011;4792;50.088;8.122;2023-03-04T05:15:12;45.37;;;23.03;;
9508;SDS011;4792;50.088;8.122;2023-03-04T05:17:41;46.23;;;22.77;;
9508;SDS011;4792;50.088;8.122;2023-03-04T05:20:09;48.07;;;23.53;;
9508;SDS011;4792;50.088;8.122;2023-03-04T05:22:37;47.53;;;23.40;;
9508;SDS011;4792;50.088;8.122;2023-03-04T05:25:05;41.73;;;23.80;;
9508;SDS011;4792;50.088;8.122;2023-03-04T05:27:33;40.70;;;22.20;;
9508;SDS011;4792;50.088;8.122;2023-03-04T05:30:01;45.63;;;22.10;;
9508;SDS011;4792;50.088;8.122;2023-03-04T05:32:29;40.73;;;21.47;;
9508;SDS011;4792;50.088;8.122;2023-03-04T05:34:58;47.50;;;22.53;;
9508;SDS011;4792;50.088;8.122;2023-03-04T05:37:25;41.87;;;22.23;;
9508;SDS011;4792;50.088;8.122;2023-03-04T05:39:53;45.97;;;22.60;;
9508;SDS011;4792;50.088;8.122;2023-03-04T05:42:21;44.47;;;21.90;;
9508;SDS011;4792;50.088;8.122;2023-03-04T05:44:49;41.83;;;21.07;;
9508;SDS011;4792;50.088;8.122;2023-03-04T05:47:16;40.57;;;21.00;;
9508;SDS011;4792;50.088;8.122;2023-03-04T05:49:44;42.40;;;20.47;;
9508;SDS011;4792;50.088;8.122;2023-03-04T05:52:13;42.07;;;20.80;;
9508;SDS011;4792;50.088;8.122;2023-03-04T05:54:41;44.23;;;21.50;;
9508;SDS011;4792;50.088;8.122;2023-03-04T05:57:09;44.83;;;21.40;;
9508;SDS011;4792;50.088;8.122;2023-03-04T05:59:36;45.37;;;21.03;;
9508;SDS011;4792;50.088;8.122;2023-03-04T06:02:04;48.70;;;21.87;;
9508;SDS011;4792;50.088;8.122;2023-03-04T06:04:32;43.90;;;21.77;;
9508;SDS011;4792;50.088;8.122;2023-03-04T06:07:00;44.67;;;21.10;;
9508;SDS011;4792;50.088;8.122;2023-03-04T06:09:29;40.00;;;19.80;;
9508;SDS011;4792;50.088;8.122;2023-03-04T06:11:57;42.27;;;20.83;;
9508;SDS011;4792;50.088;8.122;2023-03-04T06:14:25;39.10;;;19.57;;
9508;SDS011;4792;50.088;8.122;2023-03-04T06:16:53;42.40;;;20.53;;
9508;SDS011;4792;50.088;8.122;2023-03-04T06:19:20;53.20;;;21.90;;
9508;SDS011;4792;50.088;8.122;2023-03-04T06:21:48;47.90;;;20.80;;
9508;SDS011;4792;50.088;8.122;2023-03-04T06:24:16;52.07;;;23.37;;
9508;SDS011;4792;50.088;8.122;2023-03-04T06:26:45;45.10;;;21.37;;
9508;SDS011;4792;50.088;8.122;2023-03-04T06:29:13;49.93;;;20.07;;
9508;SDS011;4792;50.088;8.122;2023-03-04T06:31:41;46.90;;;20.87;;
9508;SDS011;4792;50.088;8.122;2023-03-04T06:34:08;52.13;;;20.97;;
9508;SDS011;4792;50.088;8.122;2023-03-04T06:36:36;44.30;;;21.50;;
9508;SDS011;4792;50.088;8.122;2023-03-04T06:39:04;42.10;;;20.60;;
9508;SDS011;4792;50.088;8.122;2023-03-04T06:41:33;49.20;;;20.57;;
9508;SDS011;4792;50.088;8.122;2023-03-04T06:44:02;41.30;;;20.07;;
9508;SDS011;4792;50.088;8.122;2023-03-04T06:46:31;40.80;;;20.33;;
9508;SDS011;4792;50.088;8.122;2023-03-04T06:48:59;44.83;;;19.93;;
9508;SDS011;4792;50.088;8.122;2023-03-04T06:51:27;44.07;;;19.83;;
9508;SDS011;4792;50.088;8.122;2023-03-04T06:53:55;45.07;;;20.43;;
9508;SDS011;4792;50.088;8.122;2023-03-04T06:56:23;50.50;;;20.27;;
9508;SDS011;4792;50.088;8.122;2023-03-04T06:58:51;45.90;;;20.77;;
9508;SDS011;4792;50.088;8.122;2023-03-04T07:01:21;40.10;;;18.30;;
9508;SDS011;4792;50.088;8.122;2023-03-04T07:03:50;39.53;;;17.60;;
9508;SDS011;4792;50.088;8.122;2023-03-04T07:06:19;37.30;;;16.90;;
9508;SDS011;4792;50.088;8.122;2023-03-04T07:08:49;37.67;;;17.00;;
9508;SDS011;4792;50.088;8.122;2023-03-04T07:11:17;38.07;;;18.17;;
9508;SDS011;4792;50.088;8.122;2023-03-04T07:13:45;39.00;;;17.73;;
9508;SDS011;4792;50.088;8.122;2023-03-04T07:16:13;46.60;;;19.10;;
9508;SDS011;4792;50.088;8.122;2023-03-04T07:18:45;42.97;;;18.53;;
9508;SDS011;4792;50.088;8.122;2023-03-04T07:21:13;38.13;;;18.60;;
9508;SDS011;4792;50.088;8.122;2023-03-04T07:23:42;37.63;;;16.60;;
9508;SDS011;4792;50.088;8.122;2023-03-04T07:26:10;45.07;;;16.60;;
9508;SDS011;4792;50.088;8.122;2023-03-04T07:28:37;39.53;;;16.70;;
9508;SDS011;4792;50.088;8.122;2023-03-04T07:31:10;33.97;;;16.87;;
9508;SDS011;4792;50.088;8.122;2023-03-04T07:33:38;39.63;;;18.60;;
9508;SDS011;4792;50.088;8.122;2023-03-04T07:36:09;41.60;;;19.87;;
9508;SDS011;4792;50.088;8.122;2023-03-04T07:38:41;43.57;;;18.40;;
9508;SDS011;4792;50.088;8.122;2023-03-04T07:41:10;53.67;;;25.63;;
9508;SDS011;4792;50.088;8.122;2023-03-04T07:43:38;45.40;;;19.87;;
9508;SDS011;4792;50.088;8.122;2023-03-04T07:46:06;39.93;;;18.40;;
9508;SDS011;4792;50.088;8.122;2023-03-04T07:48:34;42.60;;;21.23;;
9508;SDS011;4792;50.088;8.122;2023-03-04T07:51:06;40.47;;;18.13;;
9508;SDS011;4792;50.088;8.122;2023-03-04T07:53:36;49.93;;;18.37;;
9508;SDS011;4792;50.088;8.122;2023-03-04T07:56:05;43.83;;;18.97;;
9508;SDS011;4792;50.088;8.122;2023-03-04T07:58:34;41.10;;;17.57;;
9508;SDS011;4792;50.088;8.122;2023-03-04T08:01:07;39.07;;;18.00;;
9508;SDS011;4792;50.088;8.122;2023-03-04T08:03:35;42.47;;;19.63;;
9508;SDS011;4792;50.088;8.122;2023-03-04T08:06:04;43.37;;;20.23;;
9508;SDS011;4792;50.088;8.122;2023-03-04T08:08:32;35.30;;;17.47;;
9508;SDS011;4792;50.088;8.122;2023-03-04T08:11:03;41.07;;;17.47;;
9508;SDS011;4792;50.088;8.122;2023-03-04T08:13:32;37.70;;;17.77;;
9508;SDS011;4792;50.088;8.122;2023-03-04T08:16:00;41.27;;;17.23;;
9508;SDS011;4792;50.088;8.122;2023-03-04T08:18:28;36.27;;;16.37;;
9508;SDS011;4792;50.088;8.122;2023-03-04T08:20:55;39.33;;;16.17;;
9508;SDS011;4792;50.088;8.122;2023-03-04T08:23:23;39.50;;;16.10;;
9508;SDS011;4792;50.088;8.122;2023-03-04T08:25:51;36.40;;;16.17;;
9508;SDS011;4792;50.088;8.122;2023-03-04T08:28:21;35.60;;;17.20;;
9508;SDS011;4792;50.088;8.122;2023-03-04T08:30:51;48.33;;;16.33;;
9508;SDS011;4792;50.088;8.122;2023-03-04T08:33:19;33.83;;;15.80;;
9508;SDS011;4792;50.088;8.122;2023-03-04T08:35:47;40.73;;;16.77;;
9508;SDS011;4792;50.088;8.122;2023-03-04T08:38:15;37.90;;;15.70;;
9508;SDS011;4792;50.088;8.122;2023-03-04T08:40:43;46.00;;;16.97;;
9508;SDS011;4792;50.088;8.122;2023-03-04T08:43:11;38.13;;;14.77;;
9508;SDS011;4792;50.088;8.122;2023-03-04T08:45:40;36.60;;;14.87;;
9508;SDS011;4792;50.088;8.122;2023-03-04T08:48:07;30.73;;;13.43;;
9508;SDS011;4792;50.088;8.122;2023-03-04T08:50:35;32.43;;;14.37;;
9508;SDS011;4792;50.088;8.122;2023-03-04T08:53:03;30.10;;;14.30;;
9508;SDS011;4792;50.088;8.122;2023-03-04T08:55:31;34.10;;;13.80;;
9508;SDS011;4792;50.088;8.122;2023-03-04T08:57:58;28.93;;;13.60;;
9508;SDS011;4792;50.088;8.122;2023-03-04T09:00:26;28.70;;;13.47;;
9508;SDS011;4792;50.088;8.122;2023-03-04T09:02:55;29.13;;;13.50;;
9508;SDS011;4792;50.088;8.122;2023-03-04T09:05:23;34.37;;;12.67;;
9508;SDS011;4792;50.088;8.122;2023-03-04T09:07:51;34.10;;;12.30;;
9508;SDS011;4792;50.088;8.122;2023-03-04T09:10:19;29.70;;;12.17;;
9508;SDS011;4792;50.088;8.122;2023-03-04T09:12:47;37.10;;;13.63;;
9508;SDS011;4792;50.088;8.122;2023-03-04T09:15:15;35.97;;;13.87;;
9508;SDS011;4792;50.088;8.122;2023-03-04T09:17:43;32.97;;;13.20;;
9508;SDS011;4792;50.088;8.122;2023-03-04T09:20:12;27.43;;;12.97;;
9508;SDS011;4792;50.088;8.122;2023-03-04T09:22:40;37.50;;;13.30;;
9508;SDS011;4792;50.088;8.122;2023-03-04T09:25:09;32.33;;;11.97;;
9508;SDS011;4792;50.088;8.122;2023-03-04T09:27:38;32.47;;;12.60;;
9508;SDS011;4792;50.088;8.122;2023-03-04T09:30:07;27.80;;;12.23;;
9508;SDS011;4792;50.088;8.122;2023-03-04T09:32:35;27.80;;;11.30;;
9508;SDS011;4792;50.088;8.122;2023-03-04T09:35:03;28.00;;;11.40;;
9508;SDS011;4792;50.088;8.122;2023-03-04T09:37:33;28.47;;;11.97;;
9508;SDS011;4792;50.088;8.122;2023-03-04T09:40:01;27.40;;;10.67;;
9508;SDS011;4792;50.088;8.122;2023-03-04T09:42:32;25.83;;;10.63;;
9508;SDS011;4792;50.088;8.122;2023-03-04T09:45:02;26.00;;;10.50;;
9508;SDS011;4792;50.088;8.122;2023-03-04T09:47:32;28.20;;;11.50;;
9508;SDS011;4792;50.088;8.122;2023-03-04T09:50:02;27.87;;;10.60;;
9508;SDS011;4792;50.088;8.122;2023-03-04T09:52:37;29.53;;;10.57;;
9508;SDS011;4792;50.088;8.122;2023-03-04T09:55:14;33.27;;;11.37;;
9508;SDS011;4792;50.088;8.122;2023-03-04T09:57:46;25.53;;;10.60;;
9508;SDS011;4792;50.088;8.122;2023-03-04T10:00:18;24.83;;;10.47;;
9508;SDS011;4792;50.088;8.122;2023-03-04T10:02:57;22.30;;;9.47;;
9508;SDS011;4792;50.088;8.122;2023-03-04T10:05:38;27.50;;;9.67;;
9508;SDS011;4792;50.088;8.122;2023-03-04T10:08:15;27.60;;;10.67;;
9508;SDS011;4792;50.088;8.122;2023-03-04T10:10:51;21.47;;;9.57;;
9508;SDS011;4792;50.088;8.122;2023-03-04T10:13:22;34.80;;;13.67;;
9508;SDS011;4792;50.088;8.122;2023-03-04T10:15:52;25.90;;;10.00;;
9508;SDS011;4792;50.088;8.122;2023-03-04T10:18:21;25.23;;;11.20;;
9508;SDS011;4792;50.088;8.122;2023-03-04T10:20:52;27.80;;;9.80;;
9508;SDS011;4792;50.088;8.122;2023-03-04T10:23:25;24.37;;;9.27;;
9508;SDS011;4792;50.088;8.122;2023-03-04T10:25:54;25.37;;;8.83;;
9508;SDS011;4792;50.088;8.122;2023-03-04T10:28:23;22.20;;;8.90;;
9508;SDS011;4792;50.088;8.122;2023-03-04T10:30:54;18.37;;;8.03;;
9508;SDS011;4792;50.088;8.122;2023-03-04T10:33:25;26.97;;;11.43;;
9508;SDS011;4792;50.088;8.122;2023-03-04T10:35:58;22.73;;;9.77;;
9508;SDS011;4792;50.088;8.122;2023-03-04T10:38:30;26.53;;;13.33;;
9508;SDS011;4792;50.088;8.122;2023-03-04T10:40:59;23.70;;;9.93;;
9508;SDS011;4792;50.088;8.122;2023-03-04T10:43:28;19.87;;;9.60;;
9508;SDS011;4792;50.088;8.122;2023-03-04T10:45:57;24.37;;;10.17;;
9508;SDS011;4792;50.088;8.122;2023-03-04T10:48:27;22.60;;;9.97;;
9508;SDS011;4792;50.088;8.122;2023-03-04T10:51:08;24.93;;;9.83;;
9508;SDS011;4792;50.088;8.122;2023-03-04T10:53:39;22.63;;;9.40;;
9508;SDS011;4792;50.088;8.122;2023-03-04T10:59:01;23.03;;;9.10;;
9508;SDS011;4792;50.088;8.122;2023-03-04T11:02:12;14.57;;;7.60;;
9508;SDS011;4792;50.088;8.122;2023-03-04T11:04:54;18.50;;;8.33;;
9508;SDS011;4792;50.088;8.122;2023-03-04T11:07:23;16.50;;;7.87;;
9508;SDS011;4792;50.088;8.122;2023-03-04T11:09:53;23.63;;;7.80;;
9508;SDS011;4792;50.088;8.122;2023-03-04T11:12:31;22.07;;;8.67;;
9508;SDS011;4792;50.088;8.122;2023-03-04T11:15:14;20.37;;;8.17;;
9508;SDS011;4792;50.088;8.122;2023-03-04T11:17:46;17.57;;;7.00;;
9508;SDS011;4792;50.088;8.122;2023-03-04T11:20:16;23.10;;;7.97;;
9508;SDS011;4792;50.088;8.122;2023-03-04T11:22:52;16.13;;;6.97;;
9508;SDS011;4792;50.088;8.122;2023-03-04T11:25:22;16.70;;;7.43;;
9508;SDS011;4792;50.088;8.122;2023-03-04T11:27:52;20.13;;;7.40;;
9508;SDS011;4792;50.088;8.122;2023-03-04T11:30:26;17.77;;;6.70;;
9508;SDS011;4792;50.088;8.122;2023-03-04T11:33:03;14.10;;;6.87;;
9508;SDS011;4792;50.088;8.122;2023-03-04T11:35:38;13.57;;;6.90;;
9508;SDS011;4792;50.088;8.122;2023-03-04T11:38:14;13.87;;;7.00;;
9508;SDS011;4792;50.088;8.122;2023-03-04T11:40:48;17.57;;;7.03;;
9508;SDS011;4792;50.088;8.122;2023-03-04T11:43:18;13.77;;;6.57;;
9508;SDS011;4792;50.088;8.122;2023-03-04T11:46:05;14.93;;;6.47;;
9508;SDS011;4792;50.088;8.122;2023-03-04T11:48:52;17.53;;;8.17;;
9508;SDS011;4792;50.088;8.122;2023-03-04T11:51:26;16.00;;;6.83;;
9508;SDS011;4792;50.088;8.122;2023-03-04T11:54:01;17.83;;;7.20;;
9508;SDS011;4792;50.088;8.122;2023-03-04T11:56:41;15.73;;;6.77;;
9508;SDS011;4792;50.088;8.122;2023-03-04T11:59:19;13.63;;;6.87;;
9508;SDS011;4792;50.088;8.122;2023-03-04T12:01:58;12.80;;;6.47;;
9508;SDS011;4792;50.088;8.122;2023-03-04T12:07:45;11.47;;;6.50;;
9508;SDS011;4792;50.088;8.122;2023-03-04T12:10:21;14.17;;;6.20;;
9508;SDS011;4792;50.088;8.122;2023-03-04T12:12:59;20.20;;;7.07;;
9508;SDS011;4792;50.088;8.122;2023-03-04T12:15:40;13.50;;;6.87;;
9508;SDS011;4792;50.088;8.122;2023-03-04T12:21:08;12.23;;;6.80;;
9508;SDS011;4792;50.088;8.122;2023-03-04T12:23:50;14.50;;;6.33;;
9508;SDS011;4792;50.088;8.122;2023-03-04T12:26:29;11.10;;;6.27;;
9508;SDS011;4792;50.088;8.122;2023-03-04T12:29:04;20.07;;;6.73;;
9508;SDS011;4792;50.088;8.122;2023-03-04T12:31:35;15.20;;;7.03;;
9508;SDS011;4792;50.088;8.122;2023-03-04T12:40:29;14.00;;;6.30;;
9508;SDS011;4792;50.088;8.122;2023-03-04T12:43:06;14.17;;;7.13;;
9508;SDS011;4792;50.088;8.122;2023-03-04T12:45:42;18.07;;;6.60;;
9508;SDS011;4792;50.088;8.122;2023-03-04T12:48:16;12.57;;;7.17;;
9508;SDS011;4792;50.088;8.122;2023-03-04T12:50:53;17.43;;;6.50;;
9508;SDS011;4792;50.088;8.122;2023-03-04T12:53:28;13.60;;;6.27;;
9508;SDS011;4792;50.088;8.122;2023-03-04T12:55:58;12.50;;;6.47;;
9508;SDS011;4792;50.088;8.122;2023-03-04T12:58:27;9.10;;;6.07;;
9508;SDS011;4792;50.088;8.122;2023-03-04T13:00:58;12.53;;;6.60;;
9508;SDS011;4792;50.088;8.122;2023-03-04T13:03:35;13.57;;;6.07;;
9508;SDS011;4792;50.088;8.122;2023-03-04T13:06:11;17.07;;;6.83;;
9508;SDS011;4792;50.088;8.122;2023-03-04T13:08:55;27.10;;;11.47;;
9508;SDS011;4792;50.088;8.122;2023-03-04T13:11:42;12.93;;;6.20;;
9508;SDS011;4792;50.088;8.122;2023-03-04T13:14:23;16.43;;;6.67;;
9508;SDS011;4792;50.088;8.122;2023-03-04T13:16:53;11.03;;;6.30;;
9508;SDS011;4792;50.088;8.122;2023-03-04T13:22:28;13.93;;;6.50;;
9508;SDS011;4792;50.088;8.122;2023-03-04T13:28:05;10.77;;;5.77;;
9508;SDS011;4792;50.088;8.122;2023-03-04T13:33:47;11.13;;;5.47;;
9508;SDS011;4792;50.088;8.122;2023-03-04T13:39:29;13.90;;;6.80;;
9508;SDS011;4792;50.088;8.122;2023-03-04T13:41:58;21.60;;;9.87;;
9508;SDS011;4792;50.088;8.122;2023-03-04T13:44:33;15.30;;;8.83;;
9508;SDS011;4792;50.088;8.122;2023-03-04T13:47:17;14.63;;;7.43;;
9508;SDS011;4792;50.088;8.122;2023-03-04T13:49:48;11.43;;;6.10;;
9508;SDS011;4792;50.088;8.122;2023-03-04T13:55:30;20.93;;;10.97;;
9508;SDS011;4792;50.088;8.122;2023-03-04T13:58:00;11.00;;;6.43;;
9508;SDS011;4792;50.088;8.122;2023-03-04T14:00:29;14.13;;;5.90;;
9508;SDS011;4792;50.088;8.122;2023-03-04T14:03:11;13.57;;;5.80;;
9508;SDS011;4792;50.088;8.122;2023-03-04T14:05:41;11.57;;;6.40;;
9508;SDS011;4792;50.088;8.122;2023-03-04T14:08:18;12.30;;;5.47;;
9508;SDS011;4792;50.088;8.122;2023-03-04T14:10:53;11.37;;;5.63;;
9508;SDS011;4792;50.088;8.122;2023-03-04T14:13:21;9.30;;;5.30;;
9508;SDS011;4792;50.088;8.122;2023-03-04T14:15:54;16.93;;;7.40;;
9508;SDS011;4792;50.088;8.122;2023-03-04T14:18:22;15.27;;;6.87;;
9508;SDS011;4792;50.088;8.122;2023-03-04T14:20:52;15.63;;;6.67;;
9508;SDS011;4792;50.088;8.122;2023-03-04T14:23:25;16.47;;;6.87;;
9508;SDS011;4792;50.088;8.122;2023-03-04T14:26:04;16.00;;;6.90;;
9508;SDS011;4792;50.088;8.122;2023-03-04T14:28:40;15.17;;;7.03;;
9508;SDS011;4792;50.088;8.122;2023-03-04T14:31:11;23.53;;;8.07;;
9508;SDS011;4792;50.088;8.122;2023-03-04T14:33:43;14.77;;;7.23;;
9508;SDS011;4792;50.088;8.122;2023-03-04T14:36:16;16.30;;;7.40;;
9508;SDS011;4792;50.088;8.122;2023-03-04T14:38:49;12.97;;;7.23;;
9508;SDS011;4792;50.088;8.122;2023-03-04T14:41:20;18.73;;;7.80;;
9508;SDS011;4792;50.088;8.122;2023-03-04T14:43:53;14.30;;;7.50;;
9508;SDS011;4792;50.088;8.122;2023-03-04T14:46:25;14.90;;;7.57;;
9508;SDS011;4792;50.088;8.122;2023-03-04T14:48:57;13.43;;;7.40;;
9508;SDS011;4792;50.088;8.122;2023-03-04T14:51:31;18.10;;;7.47;;
9508;SDS011;4792;50.088;8.122;2023-03-04T14:54:04;18.43;;;8.50;;
9508;SDS011;4792;50.088;8.122;2023-03-04T14:56:33;15.20;;;7.53;;
9508;SDS011;4792;50.088;8.122;2023-03-04T14:59:02;17.57;;;8.57;;
9508;SDS011;4792;50.088;8.122;2023-03-04T15:01:30;15.83;;;7.27;;
9508;SDS011;4792;50.088;8.122;2023-03-04T15:03:59;18.93;;;7.83;;
9508;SDS011;4792;50.088;8.122;2023-03-04T15:06:29;18.40;;;8.37;;
9508;SDS011;4792;50.088;8.122;2023-03-04T15:09:00;14.77;;;7.70;;
9508;SDS011;4792;50.088;8.122;2023-03-04T15:11:30;12.40;;;7.30;;
9508;SDS011;4792;50.088;8.122;2023-03-04T15:13:59;14.80;;;6.87;;
9508;SDS011;4792;50.088;8.122;2023-03-04T15:16:28;14.10;;;6.60;;
9508;SDS011;4792;50.088;8.122;2023-03-04T15:19:22;13.47;;;6.80;;
9508;SDS011;4792;50.088;8.122;2023-03-04T15:22:01;13.83;;;7.77;;
9508;SDS011;4792;50.088;8.122;2023-03-04T15:24:30;11.10;;;7.03;;
9508;SDS011;4792;50.088;8.122;2023-03-04T15:26:58;10.93;;;6.80;;
9508;SDS011;4792;50.088;8.122;2023-03-04T15:29:27;18.50;;;6.43;;
9508;SDS011;4792;50.088;8.122;2023-03-04T15:31:55;16.67;;;7.73;;
9508;SDS011;4792;50.088;8.122;2023-03-04T15:34:23;13.27;;;6.87;;
9508;SDS011;4792;50.088;8.122;2023-03-04T15:36:53;12.47;;;6.20;;
9508;SDS011;4792;50.088;8.122;2023-03-04T15:39:22;10.17;;;7.17;;
9508;SDS011;4792;50.088;8.122;2023-03-04T15:41:52;10.93;;;6.87;;